createdAt,value
2019-04-19T00:01:00.577Z,12.176819
2019-04-19T00:01:59.388Z,12.146606
2019-04-19T00:02:54.534Z,12.166748
2019-04-19T00:03:53.201Z,12.136536
2019-04-19T00:04:57.234Z,12.106323
2019-04-19T00:05:54.083Z,12.106323
2019-04-19T00:06:58.982Z,12.096252
2019-04-19T00:08:12.332Z,12.096252
2019-04-19T00:09:08.848Z,12.076111
2019-04-19T00:10:00.525Z,12.06604
2019-04-19T00:10:59.707Z,12.015686
2019-04-19T00:12:06.309Z,12.015686
2019-04-19T00:12:58.384Z,11.995544
2019-04-19T00:13:53.688Z,11.995544
2019-04-19T00:14:52.775Z,11.985474
2019-04-19T00:15:53.839Z,11.955261
2019-04-19T00:16:53.152Z,11.925049
2019-04-19T00:17:59.556Z,11.894836
2019-04-19T00:19:13.904Z,11.884766
2019-04-19T00:20:16.186Z,11.864624
2019-04-19T00:21:12.092Z,11.864624
2019-04-19T00:22:13.079Z,11.804199
2019-04-19T00:23:04.029Z,11.784058
2019-04-19T00:23:55.151Z,11.784058
2019-04-19T00:24:52.990Z,11.773987
2019-04-19T00:25:54.026Z,11.743774
2019-04-19T00:26:53.081Z,11.763916
2019-04-19T00:27:56.808Z,11.743774
2019-04-19T00:28:58.675Z,11.733704
2019-04-19T00:29:59.332Z,11.703491
2019-04-19T00:31:01.515Z,11.703491
2019-04-19T00:32:11.525Z,11.673279
2019-04-19T00:33:08.824Z,11.653137
2019-04-19T00:33:57.271Z,11.632996
2019-04-19T00:34:54.665Z,11.632996
2019-04-19T00:35:53.789Z,11.632996
2019-04-19T00:36:55.345Z,11.622925
2019-04-19T00:38:01.454Z,11.622925
2019-04-19T00:39:14.763Z,11.592712
2019-04-19T00:40:15.242Z,11.592712
2019-04-19T00:41:12.706Z,11.592712
2019-04-19T00:42:10.203Z,11.5625
2019-04-19T00:43:07.211Z,11.532288
2019-04-19T00:44:06.489Z,11.522217
2019-04-19T00:45:12.994Z,11.522217
2019-04-19T00:46:08.838Z,11.512146
2019-04-19T00:47:11.816Z,11.492004
2019-04-19T00:48:05.011Z,11.451721
2019-04-19T00:49:07.608Z,11.44165
2019-04-19T00:50:07.044Z,11.44165
2019-04-19T00:51:08.043Z,11.411438
2019-04-19T00:52:05.017Z,11.401367
2019-04-19T00:53:07.271Z,11.381226
2019-04-19T00:54:04.780Z,11.371155
2019-04-19T00:55:04.192Z,11.351013
2019-04-19T00:56:04.246Z,11.330872
2019-04-19T00:57:01.427Z,11.31073
2019-04-19T00:58:03.917Z,11.300659
2019-04-19T00:59:00.627Z,11.300659
2019-04-19T00:59:56.461Z,11.270447
2019-04-19T01:00:57.193Z,11.250305
2019-04-19T01:02:00.683Z,11.250305
2019-04-19T01:02:57.601Z,11.250305
2019-04-19T01:03:55.608Z,11.250305
2019-04-19T01:05:01.163Z,11.250305
2019-04-19T01:06:01.810Z,11.250305
2019-04-19T01:06:59.103Z,11.250305
2019-04-19T01:07:55.725Z,11.250305
2019-04-19T01:09:04.565Z,11.230164
2019-04-19T01:10:09.451Z,11.230164
2019-04-19T01:11:12.523Z,11.220093
2019-04-19T01:12:10.157Z,11.199951
2019-04-19T01:13:07.697Z,11.220093
2019-04-19T01:14:06.043Z,11.199951
2019-04-19T01:15:05.458Z,11.199951
2019-04-19T01:16:05.002Z,11.18988
2019-04-19T01:17:11.030Z,11.18988
2019-04-19T01:18:11.473Z,11.17981
2019-04-19T01:19:01.350Z,11.159668
2019-04-19T01:20:00.179Z,11.159668
2019-04-19T01:20:56.344Z,11.149597
2019-04-19T01:21:55.453Z,11.149597
2019-04-19T01:23:02.316Z,11.129456
2019-04-19T01:23:59.012Z,11.129456
2019-04-19T01:24:56.264Z,11.099243
2019-04-19T01:26:00.620Z,11.079102
2019-04-19T01:26:57.241Z,11.048889
2019-04-19T01:27:57.493Z,11.038818
2019-04-19T01:29:00.612Z,11.018677
2019-04-19T01:29:57.736Z,11.018677
2019-04-19T01:30:54.922Z,11.008606
2019-04-19T01:32:03.069Z,10.998535
2019-04-19T01:32:59.131Z,10.998535
2019-04-19T01:33:54.722Z,10.998535
2019-04-19T01:35:00.789Z,10.978394
2019-04-19T01:35:57.355Z,10.978394
2019-04-19T01:36:54.858Z,10.968323
2019-04-19T01:38:00.593Z,10.968323
2019-04-19T01:39:12.921Z,10.948181
2019-04-19T01:40:09.241Z,10.93811
2019-04-19T01:41:11.696Z,10.897827
2019-04-19T01:42:07.444Z,10.887756
2019-04-19T01:43:10.735Z,10.867615
2019-04-19T01:44:15.398Z,10.837402
2019-04-19T01:45:09.798Z,10.837402
2019-04-19T01:46:09.141Z,10.817261
2019-04-19T01:47:11.223Z,10.797119
2019-04-19T01:48:10.070Z,10.766907
2019-04-19T01:49:06.119Z,10.756836
2019-04-19T01:50:05.186Z,10.746765
2019-04-19T01:51:12.947Z,10.746765
2019-04-19T01:53:13.386Z,10.706482
2019-04-19T01:54:09.780Z,10.68634
2019-04-19T01:55:06.629Z,10.67627
2019-04-19T01:56:01.875Z,10.666199
2019-04-19T01:57:00.618Z,10.646057
2019-04-19T01:58:01.421Z,10.635986
2019-04-19T01:58:59.193Z,10.615845
2019-04-19T01:59:57.463Z,10.615845
2019-04-19T02:00:58.951Z,10.615845
2019-04-19T02:02:01.391Z,10.585632
2019-04-19T02:02:59.823Z,10.615845
2019-04-19T02:03:57.017Z,10.605774
2019-04-19T02:04:59.729Z,10.585632
2019-04-19T02:06:01.791Z,10.615845
2019-04-19T02:06:56.448Z,10.605774
2019-04-19T02:08:02.014Z,10.605774
2019-04-19T02:08:59.136Z,10.605774
2019-04-19T02:10:09.605Z,10.615845
2019-04-19T02:11:05.300Z,10.585632
2019-04-19T02:12:06.131Z,10.575562
2019-04-19T02:13:03.840Z,10.575562
2019-04-19T02:14:03.460Z,10.545349
2019-04-19T02:15:02.571Z,10.525208
2019-04-19T02:15:57.830Z,10.525208
2019-04-19T02:17:00.788Z,10.525208
2019-04-19T02:17:57.085Z,10.525208
2019-04-19T02:19:03.208Z,10.545349
2019-04-19T02:20:00.905Z,10.545349
2019-04-19T02:20:56.623Z,10.565491
2019-04-19T02:22:00.004Z,10.585632
2019-04-19T02:23:01.442Z,10.585632
2019-04-19T02:23:59.329Z,10.565491
2019-04-19T02:24:58.728Z,10.585632
2019-04-19T02:25:59.050Z,10.605774
2019-04-19T02:27:00.944Z,10.605774
2019-04-19T02:27:56.816Z,10.585632
2019-04-19T02:29:02.451Z,10.575562
2019-04-19T02:30:00.461Z,10.575562
2019-04-19T02:31:10.271Z,10.565491
2019-04-19T02:32:17.116Z,10.565491
2019-04-19T02:33:19.713Z,10.525208
2019-04-19T02:34:28.642Z,10.525208
2019-04-19T02:35:15.167Z,10.494995
2019-04-19T02:36:24.667Z,10.464783
2019-04-19T02:38:20.869Z,10.454712
2019-04-19T02:40:38.228Z,10.454712
2019-04-19T02:42:37.934Z,10.4245
2019-04-19T02:43:35.495Z,10.414429
2019-04-19T02:44:43.098Z,10.394287
2019-04-19T02:47:39.798Z,10.384216
2019-04-19T02:48:26.027Z,10.364075
2019-04-19T02:49:27.597Z,10.343933
2019-04-19T02:50:27.706Z,10.343933
2019-04-19T02:51:23.696Z,10.313721
2019-04-19T02:53:22.173Z,10.283508
2019-04-19T02:54:24.879Z,10.273438
2019-04-19T02:55:42.870Z,10.283508
2019-04-19T02:56:35.640Z,10.283508
2019-04-19T02:57:32.596Z,10.30365
2019-04-19T02:58:16.403Z,10.30365
2019-04-19T02:59:29.250Z,10.283508
2019-04-19T03:01:26.453Z,10.313721
2019-04-19T03:02:31.222Z,10.30365
2019-04-19T03:05:18.463Z,10.273438
2019-04-19T03:06:13.096Z,10.273438
2019-04-19T03:07:01.001Z,10.273438
2019-04-19T03:07:57.735Z,10.243225
2019-04-19T03:08:56.612Z,10.243225
2019-04-19T03:09:57.936Z,10.243225
2019-04-19T03:11:08.918Z,10.243225
2019-04-19T03:12:09.164Z,10.243225
2019-04-19T03:13:12.599Z,10.253296
2019-04-19T03:14:11.752Z,10.243225
2019-04-19T03:15:09.328Z,10.253296
2019-04-19T03:16:14.875Z,10.243225
2019-04-19T03:17:17.203Z,10.233154
2019-04-19T03:18:19.104Z,10.213013
2019-04-19T03:19:09.340Z,10.202942
2019-04-19T03:20:16.288Z,10.172729
2019-04-19T03:21:11.317Z,10.152588
2019-04-19T03:22:15.968Z,10.132446
2019-04-19T03:23:13.012Z,10.092163
2019-04-19T03:24:14.017Z,10.072021
2019-04-19T03:25:15.064Z,10.072021
2019-04-19T03:26:15.233Z,10.061951
2019-04-19T03:27:06.252Z,10.05188
2019-04-19T03:28:06.933Z,10.031738
2019-04-19T03:29:08.020Z,10.031738
2019-04-19T03:30:10.418Z,10.001526
2019-04-19T03:31:40.642Z,9.991455
2019-04-19T03:32:34.579Z,9.971313
2019-04-19T03:34:18.306Z,9.971313
2019-04-19T03:35:19.042Z,9.951172
2019-04-19T03:36:14.792Z,9.941101
2019-04-19T03:37:14.103Z,9.920959
2019-04-19T03:38:15.488Z,9.910889
2019-04-19T03:39:22.773Z,9.900818
2019-04-19T03:41:18.305Z,9.900818
2019-04-19T03:42:19.894Z,9.880676
2019-04-19T03:43:18.095Z,9.880676
2019-04-19T03:44:15.501Z,9.880676
2019-04-19T03:45:17.278Z,9.880676
2019-04-19T03:46:15.802Z,9.850464
2019-04-19T03:47:14.854Z,9.870605
2019-04-19T03:48:32.540Z,9.870605
2019-04-19T03:49:23.345Z,9.870605
2019-04-19T03:50:14.981Z,9.870605
2019-04-19T03:51:13.336Z,9.870605
2019-04-19T03:52:19.936Z,9.870605
2019-04-19T03:53:17.215Z,9.850464
2019-04-19T03:54:17.319Z,9.840393
2019-04-19T03:55:18.759Z,9.840393
2019-04-19T03:56:20.368Z,9.840393
2019-04-19T03:57:09.974Z,9.840393
2019-04-19T03:58:05.079Z,9.820251
2019-04-19T03:58:58.919Z,9.820251
2019-04-19T03:59:58.333Z,9.820251
2019-04-19T04:00:58.141Z,9.80011
2019-04-19T04:02:00.692Z,9.80011
2019-04-19T04:03:00.892Z,9.769897
2019-04-19T04:04:06.185Z,9.729614
2019-04-19T04:05:04.882Z,9.729614
2019-04-19T04:05:59.921Z,9.719543
2019-04-19T04:07:05.298Z,9.689331
2019-04-19T04:08:04.268Z,9.659119
2019-04-19T04:09:03.064Z,9.638977
2019-04-19T04:10:01.054Z,9.618835
2019-04-19T04:11:00.055Z,9.588623
2019-04-19T04:12:15.181Z,9.558411
2019-04-19T04:13:13.942Z,9.558411
2019-04-19T04:14:11.973Z,9.54834
2019-04-19T04:15:10.187Z,9.518127
2019-04-19T04:16:11.336Z,9.508057
2019-04-19T04:17:00.160Z,9.487915
2019-04-19T04:17:58.546Z,9.467773
2019-04-19T04:18:59.597Z,9.467773
2019-04-19T04:20:00.779Z,9.447632
2019-04-19T04:20:59.514Z,9.437561
2019-04-19T04:21:58.815Z,9.397278
2019-04-19T04:23:03.415Z,9.397278
2019-04-19T04:24:10.848Z,9.387207
2019-04-19T04:25:09.197Z,9.387207
2019-04-19T04:26:06.536Z,9.387207
2019-04-19T04:27:07.546Z,9.367065
2019-04-19T04:28:08.909Z,9.356995
2019-04-19T04:29:09.143Z,9.326782
2019-04-19T04:30:09.770Z,9.326782
2019-04-19T04:31:08.586Z,9.306641
2019-04-19T04:32:09.522Z,9.29657
2019-04-19T04:33:07.051Z,9.306641
2019-04-19T04:34:07.716Z,9.29657
2019-04-19T04:35:13.379Z,9.29657
2019-04-19T04:36:20.727Z,9.306641
2019-04-19T04:37:16.449Z,9.306641
2019-04-19T04:38:08.712Z,9.326782
2019-04-19T04:39:00.844Z,9.336853
2019-04-19T04:39:59.763Z,9.326782
2019-04-19T04:41:06.962Z,9.306641
2019-04-19T04:42:11.025Z,9.306641
2019-04-19T04:43:13.418Z,9.29657
2019-04-19T04:44:18.970Z,9.29657
2019-04-19T04:45:21.796Z,9.286499
2019-04-19T04:46:26.695Z,9.286499
2019-04-19T04:47:19.122Z,9.266357
2019-04-19T04:48:12.409Z,9.216003
2019-04-19T04:49:28.220Z,9.216003
2019-04-19T04:50:23.777Z,9.216003
2019-04-19T04:51:19.403Z,9.216003
2019-04-19T04:52:09.535Z,9.256287
2019-04-19T04:53:03.054Z,9.256287
2019-04-19T04:54:01.973Z,9.256287
2019-04-19T04:55:00.995Z,9.286499
2019-04-19T04:56:04.113Z,9.286499
2019-04-19T04:57:07.132Z,9.29657
2019-04-19T04:58:04.225Z,9.286499
2019-04-19T04:59:06.024Z,9.286499
2019-04-19T05:00:03.198Z,9.286499
2019-04-19T05:01:08.082Z,9.286499
2019-04-19T05:02:09.912Z,9.266357
2019-04-19T05:03:16.473Z,9.266357
2019-04-19T05:04:18.356Z,9.286499
2019-04-19T05:05:19.322Z,9.286499
2019-04-19T05:06:21.499Z,9.29657
2019-04-19T05:07:21.935Z,9.286499
2019-04-19T05:08:24.035Z,9.306641
2019-04-19T05:09:22.413Z,9.306641
2019-04-19T05:10:18.478Z,9.326782
2019-04-19T05:11:19.976Z,9.356995
2019-04-19T05:12:26.824Z,9.356995
2019-04-19T05:13:21.317Z,9.397278
2019-04-19T05:14:20.571Z,9.397278
2019-04-19T05:15:19.739Z,9.397278
2019-04-19T05:16:26.255Z,9.417419
2019-04-19T05:17:31.998Z,9.437561
2019-04-19T05:18:24.707Z,9.467773
2019-04-19T05:19:22.173Z,9.467773
2019-04-19T05:20:22.237Z,9.508057
2019-04-19T05:21:21.234Z,9.518127
2019-04-19T05:22:17.861Z,9.54834
2019-04-19T05:23:21.984Z,9.54834
2019-04-19T05:24:25.181Z,9.578552
2019-04-19T05:25:30.621Z,9.578552
2019-04-19T05:26:33.587Z,9.588623
2019-04-19T05:27:26.331Z,9.628906
2019-04-19T05:28:21.237Z,9.638977
2019-04-19T05:29:17.412Z,9.659119
2019-04-19T05:30:06.921Z,9.669189
2019-04-19T05:31:08.932Z,9.719543
2019-04-19T05:32:14.540Z,9.729614
2019-04-19T05:33:14.733Z,9.759827
2019-04-19T05:34:24.857Z,9.769897
2019-04-19T05:35:18.953Z,9.80011
2019-04-19T05:36:23.463Z,9.840393
2019-04-19T05:37:17.172Z,9.850464
2019-04-19T05:38:19.476Z,9.880676
2019-04-19T05:39:17.058Z,9.920959
2019-04-19T05:40:22.613Z,9.971313
2019-04-19T05:41:16.614Z,9.991455
2019-04-19T05:42:16.716Z,10.021667
2019-04-19T05:43:47.212Z,10.05188
2019-04-19T05:45:32.183Z,10.092163
2019-04-19T05:46:27.956Z,10.102234
2019-04-19T05:47:23.256Z,10.132446
2019-04-19T05:48:19.672Z,10.1828
2019-04-19T05:49:22.611Z,10.213013
2019-04-19T05:50:29.945Z,10.243225
2019-04-19T05:51:33.573Z,10.283508
2019-04-19T05:52:28.458Z,10.333862
2019-04-19T05:53:19.493Z,10.364075
2019-04-19T05:54:11.636Z,10.394287
2019-04-19T05:55:08.689Z,10.4245
2019-04-19T05:56:09.114Z,10.464783
2019-04-19T05:57:26.442Z,10.505066
2019-04-19T05:58:16.252Z,10.585632
2019-04-19T05:59:17.072Z,10.635986
2019-04-19T06:00:20.329Z,10.67627
2019-04-19T06:02:17.760Z,10.766907
2019-04-19T06:03:19.637Z,10.817261
2019-04-19T06:04:25.662Z,10.857544
2019-04-19T06:05:33.668Z,10.897827
2019-04-19T06:06:31.025Z,10.93811
2019-04-19T06:07:26.319Z,10.978394
2019-04-19T06:08:18.131Z,11.018677
2019-04-19T06:09:11.096Z,11.048889
2019-04-19T06:10:12.284Z,11.079102
2019-04-19T06:11:10.754Z,11.129456
2019-04-19T06:12:17.661Z,11.159668
2019-04-19T06:13:13.898Z,11.17981
2019-04-19T06:14:31.577Z,11.199951
2019-04-19T06:15:29.714Z,11.250305
2019-04-19T06:16:25.210Z,11.270447
2019-04-19T06:17:27.586Z,11.31073
2019-04-19T06:18:25.210Z,11.371155
2019-04-19T06:19:27.445Z,11.411438
2019-04-19T06:20:25.855Z,11.44165
2019-04-19T06:21:27.223Z,11.481934
2019-04-19T06:22:26.691Z,11.512146
2019-04-19T06:23:27.139Z,11.552429
2019-04-19T06:24:31.330Z,11.592712
2019-04-19T06:25:32.664Z,11.632996
2019-04-19T06:27:43.238Z,11.743774
2019-04-19T06:28:34.243Z,11.784058
2019-04-19T06:29:37.861Z,11.834412
2019-04-19T06:30:30.075Z,11.914978
2019-04-19T06:31:30.909Z,11.94519
2019-04-19T06:32:33.549Z,11.995544
2019-04-19T06:33:31.415Z,12.025757
2019-04-19T06:34:30.502Z,12.076111
2019-04-19T06:35:23.442Z,12.116394
2019-04-19T06:36:14.467Z,12.146606
2019-04-19T06:37:16.887Z,12.176819
2019-04-19T06:38:13.862Z,12.227173
2019-04-19T06:39:14.138Z,12.287598
2019-04-19T06:40:19.649Z,12.368164
2019-04-19T06:41:17.144Z,12.478943
2019-04-19T06:42:14.989Z,12.549438
2019-04-19T06:43:18.957Z,12.619934
2019-04-19T06:44:26.674Z,12.680359
2019-04-19T06:45:30.060Z,12.760925
2019-04-19T06:46:28.580Z,12.861633
2019-04-19T06:47:21.685Z,12.9422
2019-04-19T06:48:18.281Z,13.022766
2019-04-19T06:49:20.276Z,13.083191
2019-04-19T06:50:21.127Z,13.123474
2019-04-19T06:51:24.235Z,13.173828
2019-04-19T06:52:20.821Z,13.234253
2019-04-19T06:53:14.596Z,13.284607
2019-04-19T06:54:16.740Z,13.365173
2019-04-19T06:55:23.180Z,13.425598
2019-04-19T06:56:22.701Z,13.455811
2019-04-19T06:57:21.494Z,13.536377
2019-04-19T06:58:20.763Z,13.606873
2019-04-19T06:59:22.979Z,13.677368
2019-04-19T07:00:25.813Z,13.727722
2019-04-19T07:01:26.826Z,13.778076
2019-04-19T07:02:15.805Z,13.798218
2019-04-19T07:03:15.957Z,13.848572
2019-04-19T07:04:14.899Z,13.939209
2019-04-19T07:05:27.485Z,13.999634
2019-04-19T07:06:31.981Z,14.029846
2019-04-19T07:07:33.038Z,14.0802
2019-04-19T07:08:55.643Z,14.130554
2019-04-19T07:09:56.348Z,14.190979
2019-04-19T07:10:42.449Z,14.311829
2019-04-19T07:11:39.276Z,14.372253
2019-04-19T07:12:33.833Z,14.432678
2019-04-19T07:13:27.322Z,14.45282
2019-04-19T07:14:21.217Z,14.493103
2019-04-19T07:15:43.849Z,14.593811
2019-04-19T07:16:39.061Z,14.664307
2019-04-19T07:17:33.896Z,14.684448
2019-04-19T07:18:28.499Z,14.70459
2019-04-19T07:19:34.490Z,14.734802
2019-04-19T07:20:29.882Z,14.785156
2019-04-19T07:21:36.685Z,14.865723
2019-04-19T07:22:34.584Z,14.895935
2019-04-19T07:23:38.461Z,14.926147
2019-04-19T07:24:39.094Z,14.966431
2019-04-19T07:25:42.081Z,14.986572
2019-04-19T07:26:37.382Z,15.016785
2019-04-19T07:27:30.622Z,15.036926
2019-04-19T07:28:23.662Z,15.077209
2019-04-19T07:29:18.785Z,15.117493
2019-04-19T07:30:18.293Z,15.228271
2019-04-19T07:31:18.354Z,15.298767
2019-04-19T07:32:25.169Z,15.328979
2019-04-19T07:33:31.115Z,15.389404
2019-04-19T07:34:36.939Z,15.439758
2019-04-19T07:35:39.710Z,15.480042
2019-04-19T07:36:39.895Z,15.520325
2019-04-19T07:38:38.784Z,15.631104
2019-04-19T07:39:33.513Z,15.691528
2019-04-19T07:40:36.563Z,15.751953
2019-04-19T07:41:37.473Z,15.83252
2019-04-19T07:42:33.194Z,15.872803
2019-04-19T07:43:33.412Z,15.913086
2019-04-19T07:44:28.094Z,15.943298
2019-04-19T07:45:28.544Z,15.983582
2019-04-19T07:46:38.168Z,16.023865
2019-04-19T07:47:29.329Z,16.054077
2019-04-19T07:48:22.855Z,16.08429
2019-04-19T07:49:20.829Z,16.09436
2019-04-19T07:50:26.102Z,16.164856
2019-04-19T07:51:26.385Z,16.21521
2019-04-19T07:52:24.536Z,16.255493
2019-04-19T07:53:29.515Z,16.33606
2019-04-19T07:54:23.602Z,16.386414
2019-04-19T07:55:20.738Z,16.426697
2019-04-19T07:57:50.608Z,16.507263
2019-04-19T07:58:43.190Z,16.648254
2019-04-19T08:00:55.824Z,16.799316
2019-04-19T08:01:52.337Z,16.799316
2019-04-19T08:03:57.194Z,16.829529
2019-04-19T08:04:57.103Z,16.859741
2019-04-19T08:07:59.332Z,16.950378
2019-04-19T08:09:48.133Z,17.010803
2019-04-19T08:12:41.956Z,17.121582
2019-04-19T08:13:57.701Z,17.242432
2019-04-19T08:15:54.523Z,19.10553
2019-04-19T08:27:28.031Z,26.225586
2019-04-19T08:28:30.882Z,26.930542
2019-04-19T08:29:34.925Z,28.03833
2019-04-19T08:30:34.573Z,29.337463
2019-04-19T08:31:25.018Z,30.102844
2019-04-19T08:32:23.497Z,30.404968
2019-04-19T08:33:23.439Z,30.334473
2019-04-19T08:34:24.650Z,30.082703
2019-04-19T08:35:24.165Z,29.387817
2019-04-19T08:36:31.040Z,28.944702
2019-04-19T08:37:29.549Z,28.713074
2019-04-19T08:38:28.718Z,28.41095
2019-04-19T08:39:40.729Z,28.551941
2019-04-19T08:40:42.223Z,28.199463
2019-04-19T08:41:38.988Z,27.303162
2019-04-19T08:42:38.426Z,27.635498
2019-04-19T08:43:41.395Z,27.90741
2019-04-19T08:44:37.391Z,27.877197
2019-04-19T08:45:27.461Z,28.008118
2019-04-19T08:46:24.369Z,27.806702
2019-04-19T08:47:32.532Z,27.565002
2019-04-19T08:48:35.158Z,27.565002
2019-04-19T08:49:30.000Z,27.65564
2019-04-19T08:50:26.641Z,27.78656
2019-04-19T08:51:30.970Z,27.927551
2019-04-19T08:52:30.401Z,27.051392
2019-04-19T08:53:38.749Z,26.557922
2019-04-19T08:54:46.167Z,26.104736
2019-04-19T08:55:45.978Z,25.681763
2019-04-19T08:56:38.033Z,25.339355
2019-04-19T08:57:28.993Z,25.007019
2019-04-19T08:58:43.188Z,24.51355
2019-04-19T08:59:49.010Z,23.959656
2019-04-19T09:00:57.376Z,23.687744
2019-04-19T09:01:50.481Z,23.63739
2019-04-19T09:02:42.795Z,23.697815
2019-04-19T09:03:51.005Z,23.788452
2019-04-19T09:04:43.727Z,23.587036
2019-04-19T09:05:47.675Z,23.335266
2019-04-19T09:07:50.902Z,22.922363
2019-04-19T09:08:40.632Z,22.771301
2019-04-19T09:09:50.340Z,22.781372
2019-04-19T09:10:46.553Z,23.073425
2019-04-19T09:11:47.829Z,23.546753
2019-04-19T09:12:48.041Z,24.01001
2019-04-19T09:13:49.163Z,24.241638
2019-04-19T09:14:45.435Z,24.14093
2019-04-19T09:15:42.313Z,24.070435
2019-04-19T09:16:47.569Z,23.989868
2019-04-19T09:18:12.596Z,23.939514
2019-04-19T09:18:55.549Z,24.110718
2019-04-19T09:20:09.932Z,24.291992
2019-04-19T09:20:50.316Z,24.211426
2019-04-19T09:21:41.573Z,24.664612
2019-04-19T09:22:41.267Z,25.389709
2019-04-19T09:23:39.193Z,25.7724
2019-04-19T09:24:41.798Z,25.883179
2019-04-19T09:25:40.174Z,25.89325
2019-04-19T09:26:44.430Z,26.084595
2019-04-19T09:27:47.187Z,26.255798
2019-04-19T09:28:54.001Z,26.386719
2019-04-19T09:29:50.386Z,26.386719
2019-04-19T09:30:46.679Z,25.963745
2019-04-19T09:31:42.596Z,25.510559
2019-04-19T09:32:33.845Z,25.289001
2019-04-19T09:33:34.312Z,25.238647
2019-04-19T09:34:31.927Z,25.591125
2019-04-19T09:35:37.126Z,25.701904
2019-04-19T09:36:39.383Z,25.701904
2019-04-19T09:37:46.325Z,25.7724
2019-04-19T09:38:46.784Z,25.510559
2019-04-19T09:39:43.958Z,25.359497
2019-04-19T09:40:41.279Z,25.188293
2019-04-19T09:41:38.460Z,24.805603
2019-04-19T09:42:42.020Z,24.553833
2019-04-19T09:43:44.127Z,24.312134
2019-04-19T09:44:39.787Z,24.130859
2019-04-19T09:45:31.941Z,23.989868
2019-04-19T09:46:31.815Z,23.818665
2019-04-19T09:47:33.175Z,23.919373
2019-04-19T09:48:46.041Z,24.412842
2019-04-19T09:49:47.511Z,25.037231
2019-04-19T09:50:46.457Z,25.389709
2019-04-19T09:51:46.670Z,25.359497
2019-04-19T09:52:53.807Z,25.158081
2019-04-19T09:53:51.616Z,24.986877
2019-04-19T09:54:57.233Z,24.855957
2019-04-19T09:55:55.124Z,24.553833
2019-04-19T09:56:49.405Z,24.503479
2019-04-19T09:57:55.403Z,24.443054
2019-04-19T09:58:46.317Z,24.402771
2019-04-19T09:59:37.022Z,24.563904
2019-04-19T10:00:33.908Z,24.876099
2019-04-19T10:01:38.850Z,25.208435
2019-04-19T10:02:41.047Z,25.208435
2019-04-19T10:03:38.799Z,25.258789
2019-04-19T10:04:33.876Z,25.359497
2019-04-19T10:05:32.882Z,25.218506
2019-04-19T10:06:35.070Z,25.057373
2019-04-19T10:07:32.939Z,24.986877
2019-04-19T10:08:33.742Z,24.735107
2019-04-19T10:09:33.112Z,24.886169
2019-04-19T10:10:34.099Z,25.137939
2019-04-19T10:11:34.879Z,25.027161
2019-04-19T10:12:33.588Z,24.916382
2019-04-19T10:13:34.256Z,24.76532
2019-04-19T10:14:33.522Z,24.412842
2019-04-19T10:15:34.258Z,24.312134
2019-04-19T10:16:34.602Z,24.322205
2019-04-19T10:17:34.222Z,24.362488
2019-04-19T10:18:43.902Z,24.14093
2019-04-19T10:19:34.789Z,23.818665
2019-04-19T10:20:33.527Z,23.75824
2019-04-19T10:21:37.026Z,23.697815
2019-04-19T10:22:34.894Z,23.687744
2019-04-19T10:23:33.713Z,23.627319
2019-04-19T10:24:33.612Z,23.516541
2019-04-19T10:25:35.361Z,23.617249
2019-04-19T10:26:36.123Z,23.556824
2019-04-19T10:27:35.553Z,23.728027
2019-04-19T10:28:34.443Z,23.949585
2019-04-19T10:29:38.127Z,24.291992
2019-04-19T10:30:36.171Z,24.584045
2019-04-19T10:31:35.588Z,24.735107
2019-04-19T10:32:35.491Z,24.956665
2019-04-19T10:33:40.095Z,25.158081
2019-04-19T10:34:36.585Z,25.007019
2019-04-19T10:35:35.655Z,25.037231
2019-04-19T10:36:34.782Z,25.14801
2019-04-19T10:37:35.857Z,25.460205
2019-04-19T10:38:35.921Z,25.863037
2019-04-19T10:39:37.232Z,26.175232
2019-04-19T10:40:37.550Z,26.15509
2019-04-19T10:41:36.303Z,26.255798
2019-04-19T10:42:35.531Z,26.416931
2019-04-19T10:43:35.195Z,26.52771
2019-04-19T10:44:36.225Z,26.698914
2019-04-19T10:45:36.227Z,26.829834
2019-04-19T10:46:36.597Z,26.809692
2019-04-19T10:47:37.868Z,26.9104
2019-04-19T10:48:36.786Z,27.222595
2019-04-19T10:49:44.230Z,27.554932
2019-04-19T10:50:42.571Z,27.434082
2019-04-19T10:51:37.572Z,27.454224
2019-04-19T10:52:35.687Z,27.705994
2019-04-19T10:53:36.614Z,27.776489
2019-04-19T10:54:36.286Z,27.41394
2019-04-19T10:55:38.131Z,27.303162
2019-04-19T10:56:36.378Z,27.28302
2019-04-19T10:57:35.948Z,27.222595
2019-04-19T10:58:36.959Z,27.40387
2019-04-19T10:59:36.597Z,27.625427
2019-04-19T11:00:35.987Z,27.726135
2019-04-19T11:01:37.122Z,27.726135
2019-04-19T11:02:36.618Z,27.343445
2019-04-19T11:03:36.999Z,27.595215
2019-04-19T11:04:36.247Z,27.90741
2019-04-19T11:05:36.683Z,28.088684
2019-04-19T11:06:37.290Z,28.199463
2019-04-19T11:07:39.491Z,28.400879
2019-04-19T11:08:36.466Z,28.682861
2019-04-19T11:09:37.494Z,28.974915
2019-04-19T11:10:37.754Z,28.944702
2019-04-19T11:11:37.240Z,28.551941
2019-04-19T11:12:36.591Z,27.65564
2019-04-19T11:13:38.106Z,27.947693
2019-04-19T11:14:36.612Z,28.149109
2019-04-19T11:15:38.291Z,28.310242
2019-04-19T11:16:37.542Z,28.330383
2019-04-19T11:17:38.050Z,28.03833
2019-04-19T11:18:37.325Z,28.330383
2019-04-19T11:19:49.559Z,28.551941
2019-04-19T11:20:45.319Z,28.894348
2019-04-19T11:21:38.230Z,28.521729
2019-04-19T11:22:39.634Z,28.602295
2019-04-19T11:23:37.909Z,28.572083
2019-04-19T11:24:38.900Z,28.431091
2019-04-19T11:25:37.883Z,28.400879
2019-04-19T11:26:38.973Z,28.471375
2019-04-19T11:27:37.687Z,28.652649
2019-04-19T11:28:38.906Z,28.833923
2019-04-19T11:29:38.535Z,29.236755
2019-04-19T11:30:37.671Z,29.085693
2019-04-19T11:31:37.682Z,29.518738
2019-04-19T11:32:37.953Z,29.981995
2019-04-19T11:33:39.090Z,29.387817
2019-04-19T11:34:37.800Z,28.924561
2019-04-19T11:35:39.329Z,28.713074
2019-04-19T11:36:37.938Z,28.894348
2019-04-19T11:37:39.228Z,28.864136
2019-04-19T11:38:38.761Z,29.277039
2019-04-19T11:39:39.134Z,29.518738
2019-04-19T11:40:39.212Z,29.246826
2019-04-19T11:41:38.892Z,28.944702
2019-04-19T11:42:39.059Z,28.642578
2019-04-19T11:43:38.089Z,28.874207
2019-04-19T11:44:39.450Z,29.468384
2019-04-19T11:45:38.073Z,29.085693
2019-04-19T11:46:40.187Z,28.753357
2019-04-19T11:47:38.233Z,28.833923
2019-04-19T11:48:39.496Z,28.723145
2019-04-19T11:49:42.490Z,27.877197
2019-04-19T11:50:39.843Z,28.15918
2019-04-19T11:51:39.527Z,28.823853
2019-04-19T11:52:39.665Z,29.428101
2019-04-19T11:53:38.789Z,29.861145
2019-04-19T11:54:39.774Z,30.163269
2019-04-19T11:55:38.782Z,29.6698
2019-04-19T11:56:47.965Z,30.05249
2019-04-19T11:57:40.811Z,30.475464
2019-04-19T11:58:38.905Z,30.233765
2019-04-19T11:59:45.730Z,30.274048
2019-04-19T12:00:40.175Z,30.475464
2019-04-19T12:01:39.777Z,29.992065
2019-04-19T12:02:39.907Z,29.871216
2019-04-19T12:03:41.650Z,29.518738
2019-04-19T12:04:39.983Z,29.951782
2019-04-19T12:05:40.009Z,30.42511
2019-04-19T12:06:40.534Z,30.707092
2019-04-19T12:07:39.459Z,30.948792
2019-04-19T12:08:42.016Z,31.412048